KTRI/TRI METAR and TAF weather

Enter ICAO airport designator
Station Type Date Time Source
KTRI METAR 2022/01/29 13:53 UTC NOAA

KTRI 291353Z 28012KT 9SM -SN BKN032 M07/M13 A3013 RMK AO2 SNE14B32 SLP210 P0000 T10721133


Station Type Date Time Source
KTRI Decoded METAR 2022/01/29 13:53 UTC NOAA

TRI-CITY REGIONAL AIRPORT, TN, United States (KTRI) 36-28N 082-24W 474M
Jan 29, 2022 - 08:53 AM EST / 2022.01.29 1353 UTC
Wind: from the W (280 degrees) at 14 MPH (12 KT):0
Visibility: 9 mile(s):0
Sky conditions: mostly cloudy
Weather: light snow
Precipitation last hour: A trace
Temperature: 19.0 F (-7.2 C)
Windchill: 5 F (-15 C):1
Dew Point: 8.1 F (-13.3 C)
Relative Humidity: 61%
Pressure (altimeter): 30.13 in. Hg (1020 hPa)
ob: KTRI 291353Z 28012KT 9SM -SN BKN032 M07/M13 A3013 RMK AO2 SNE14B32 SLP210 P0000 T10721133
cycle: 14

Station Type Date Time Source
KTRI TAF 2022/01/29 14:36 UTC NOAA

TAF
AMD KTRI 291333Z 2914/3012 33011G18KT 5SM -SN BR BKN030 OVC060
FM291500 30010G17KT P6SM SCT035
FM300000 VRB03KT P6SM SCT250

Example: see airport list